sensor_id;sensor_type;location;lat;lon;timestamp;temperature;humidity
82126;DHT22;71668;51.400;6.758;2023-07-22T20:15:23;28.60;32.70
82126;DHT22;71668;51.400;6.758;2023-07-22T20:17:54;27.00;33.90
82126;DHT22;71668;51.400;6.758;2023-07-22T20:20:21;26.60;34.90
82126;DHT22;71668;51.400;6.758;2023-07-22T20:22:48;26.40;35.30
82126;DHT22;71668;51.400;6.758;2023-07-22T20:25:14;26.30;35.30
82126;DHT22;71668;51.400;6.758;2023-07-22T20:41:49;29.90;35.30
82126;DHT22;71668;51.400;6.758;2023-07-22T20:44:16;29.00;31.50
82126;DHT22;71668;51.400;6.758;2023-07-22T20:46:42;27.30;31.70
82126;DHT22;71668;51.400;6.758;2023-07-22T20:49:09;26.00;33.40
82126;DHT22;71668;51.400;6.758;2023-07-22T20:51:36;25.00;34.90
82126;DHT22;71668;51.400;6.758;2023-07-22T20:54:04;24.30;35.80
82126;DHT22;71668;51.400;6.758;2023-07-22T20:56:31;23.70;36.70
82126;DHT22;71668;51.400;6.758;2023-07-22T20:58:58;23.30;37.40
82126;DHT22;71668;51.400;6.758;2023-07-22T21:01:25;22.90;38.20
82126;DHT22;71668;51.400;6.758;2023-07-22T21:03:52;22.70;38.80
82126;DHT22;71668;51.400;6.758;2023-07-22T21:06:19;22.50;39.30
82126;DHT22;71668;51.400;6.758;2023-07-22T21:08:46;22.30;39.80
82126;DHT22;71668;51.400;6.758;2023-07-22T21:11:13;22.20;40.60
82126;DHT22;71668;51.400;6.758;2023-07-22T21:13:40;22.10;41.00
82126;DHT22;71668;51.400;6.758;2023-07-22T21:16:06;22.00;41.30
82126;DHT22;71668;51.400;6.758;2023-07-22T21:18:33;22.00;41.60
82126;DHT22;71668;51.400;6.758;2023-07-22T21:21:07;21.90;41.60
82126;DHT22;71668;51.400;6.758;2023-07-22T21:23:34;21.80;42.00
82126;DHT22;71668;51.400;6.758;2023-07-22T21:26:01;21.60;42.40
82126;DHT22;71668;51.400;6.758;2023-07-22T21:28:28;21.40;42.70
82126;DHT22;71668;51.400;6.758;2023-07-22T21:30:55;21.40;43.10
82126;DHT22;71668;51.400;6.758;2023-07-22T21:33:22;21.30;43.30
82126;DHT22;71668;51.400;6.758;2023-07-22T21:35:49;21.30;43.70
82126;DHT22;71668;51.400;6.758;2023-07-22T21:38:16;21.30;43.90
82126;DHT22;71668;51.400;6.758;2023-07-22T21:40:48;21.30;43.90
82126;DHT22;71668;51.400;6.758;2023-07-22T21:43:16;21.30;44.00
82126;DHT22;71668;51.400;6.758;2023-07-22T21:45:43;21.10;44.20
82126;DHT22;71668;51.400;6.758;2023-07-22T21:48:15;21.00;44.60
82126;DHT22;71668;51.400;6.758;2023-07-22T21:50:42;21.10;44.60
82126;DHT22;71668;51.400;6.758;2023-07-22T21:53:09;21.00;45.00
82126;DHT22;71668;51.400;6.758;2023-07-22T21:55:37;21.00;45.00
82126;DHT22;71668;51.400;6.758;2023-07-22T21:58:04;21.00;45.30
82126;DHT22;71668;51.400;6.758;2023-07-22T22:00:31;21.00;45.60
82126;DHT22;71668;51.400;6.758;2023-07-22T22:02:58;21.10;45.90
82126;DHT22;71668;51.400;6.758;2023-07-22T22:05:25;21.10;46.30
82126;DHT22;71668;51.400;6.758;2023-07-22T22:07:52;20.80;46.80
82126;DHT22;71668;51.400;6.758;2023-07-22T22:10:19;20.70;47.50
82126;DHT22;71668;51.400;6.758;2023-07-22T22:12:45;20.50;47.70
82126;DHT22;71668;51.400;6.758;2023-07-22T22:15:12;20.50;47.90
82126;DHT22;71668;51.400;6.758;2023-07-22T22:17:39;20.60;47.70
82126;DHT22;71668;51.400;6.758;2023-07-22T22:20:25;20.70;47.50
82126;DHT22;71668;51.400;6.758;2023-07-22T22:22:52;20.60;47.40
82126;DHT22;71668;51.400;6.758;2023-07-22T22:25:19;20.50;48.00
82126;DHT22;71668;51.400;6.758;2023-07-22T22:27:46;20.30;48.30
82126;DHT22;71668;51.400;6.758;2023-07-22T22:30:13;20.50;49.30
82126;DHT22;71668;51.400;6.758;2023-07-22T22:32:40;20.50;49.20
82126;DHT22;71668;51.400;6.758;2023-07-22T22:35:08;20.40;50.20
82126;DHT22;71668;51.400;6.758;2023-07-22T22:37:35;20.10;51.90
82126;DHT22;71668;51.400;6.758;2023-07-22T22:40:02;19.80;52.60
82126;DHT22;71668;51.400;6.758;2023-07-22T22:42:29;19.70;53.30
82126;DHT22;71668;51.400;6.758;2023-07-22T22:44:56;19.70;53.40
82126;DHT22;71668;51.400;6.758;2023-07-22T22:47:22;19.70;53.30
82126;DHT22;71668;51.400;6.758;2023-07-22T22:49:50;19.90;53.10
82126;DHT22;71668;51.400;6.758;2023-07-22T22:52:16;20.10;52.50
82126;DHT22;71668;51.400;6.758;2023-07-22T22:54:43;19.90;51.90
82126;DHT22;71668;51.400;6.758;2023-07-22T22:57:10;19.90;52.10
82126;DHT22;71668;51.400;6.758;2023-07-22T22:59:37;20.00;52.20
82126;DHT22;71668;51.400;6.758;2023-07-22T23:02:04;20.10;52.20
82126;DHT22;71668;51.400;6.758;2023-07-22T23:04:31;19.70;52.80
82126;DHT22;71668;51.400;6.758;2023-07-22T23:06:58;19.30;53.00
82126;DHT22;71668;51.400;6.758;2023-07-22T23:09:24;19.30;53.70
82126;DHT22;71668;51.400;6.758;2023-07-22T23:11:52;19.50;53.40
82126;DHT22;71668;51.400;6.758;2023-07-22T23:14:19;19.70;52.80
82126;DHT22;71668;51.400;6.758;2023-07-22T23:16:46;19.90;52.50
82126;DHT22;71668;51.400;6.758;2023-07-22T23:19:12;20.00;52.30
82126;DHT22;71668;51.400;6.758;2023-07-22T23:21:39;19.80;52.00
82126;DHT22;71668;51.400;6.758;2023-07-22T23:24:06;19.90;52.20
82126;DHT22;71668;51.400;6.758;2023-07-22T23:26:33;19.90;52.10
82126;DHT22;71668;51.400;6.758;2023-07-22T23:29:00;19.90;52.00
82126;DHT22;71668;51.400;6.758;2023-07-22T23:31:27;20.00;51.60
82126;DHT22;71668;51.400;6.758;2023-07-22T23:33:54;20.00;51.10
82126;DHT22;71668;51.400;6.758;2023-07-22T23:36:21;20.00;51.20
82126;DHT22;71668;51.400;6.758;2023-07-22T23:38:49;20.10;51.10
82126;DHT22;71668;51.400;6.758;2023-07-22T23:41:15;20.00;51.00
82126;DHT22;71668;51.400;6.758;2023-07-22T23:43:42;19.90;51.30
82126;DHT22;71668;51.400;6.758;2023-07-22T23:46:09;19.90;51.70
82126;DHT22;71668;51.400;6.758;2023-07-22T23:48:36;19.90;51.80
82126;DHT22;71668;51.400;6.758;2023-07-22T23:51:03;19.90;51.90
82126;DHT22;71668;51.400;6.758;2023-07-22T23:53:30;19.90;52.00
82126;DHT22;71668;51.400;6.758;2023-07-22T23:55:56;19.90;52.10
82126;DHT22;71668;51.400;6.758;2023-07-22T23:58:23;19.80;52.10
